Medford, MA (02153)

10:19 PM EDT on April 01, 2015 (GMT -0400)
Emerson St. Across from Police Station | | Change Station
CLOSE
Current Station
Personal Weather Station
Location: Medford, MA
Elevation: 12 ft
Nearby Weather Stations

Elev 12 ft 42.42 °N, 71.11 °W | Updated 14 seconds ago

Clear
Clear
32.3 °F
Feels Like 32 °F
N
0.0
Wind Variable Wind from NW
Gusts 0.0 mph

Today
High -- | Low -- °F
--% Chance of Precip.
Yesterday
High -- | Low -- °F
Precip. -- in
6:27 AM 7:10 PM
Waxing Gibbous, 95% visible
Pressure 30.16 in
Visibility 10.0 miles
Clouds Clear
Windchill 32 °F
Dew Point 16 °F
Humidity 51%
Rainfall 0.00 in
Snow Depth Not available.
UV 0 out of 12
Pollen 6.90 out of 12
Air Quality Not available.
Flu Activity Not available.
METAR KBOS 020154Z 01003KT 10SM CLR 03/M15 A3016 RMK AO2 SLP211 T00281150

More Conditions Fewer Conditions

Pressure 30.16 in
Visibility 10.0 miles
Clouds Clear
Windchill 32 °F
Dew Point 16 °F
Humidity 51%
Rainfall 0.00 in
Snow Depth Not available.
UV 0 out of 12
Pollen 6.90 out of 12
Air Quality Not available.
Flu Activity Not available.
METAR KBOS 020154Z 01003KT 10SM CLR 03/M15 A3016 RMK AO2 SLP211 T00281150

More Conditions Fewer Conditions

10-Day Weather Forecast

Almanac

Astronomy

Apr. 01, 2015 Rise Set
Actual Time
Civil Twilight
Nautical Twilight
Astronomical Twilight
Moon
Length of Visible Light
Length of Day
Tomorrow will be .
, % of the Moon is Illuminated

Today's Extremes

State Highs State Lows

Community

WunderPhotos

Upload Photos

1,810,154 photos uploaded!

WunderBlogs® & News

Nearby

Air Quality

  Air Quality AQ Index Pollutant
Not available.

Snow Depth

Station Depth Elevation

Earthquake Activity

City Distance Mag. Time & Date
Minimum magnitude displayed is 2.5.

Coastal Water Temperatures

Place Temperature

Stations

Nearby Weather Stations

Station Location Temp. Windchill Dew Point Humidity Wind Precip. Elev Updated Type